Time;durP1;ratioP1;P1;durP2;ratioP2;P2;SDS_P1;SDS_P2;PMS_P1;PMS_P2;Temp;Humidity;BMP_temperature;BMP_pressure;BME280_temperature;BME280_humidity;BME280_pressure;Samples;Min_cycle;Max_cycle;Signal;HPM_P1;HPM_P2
2023/05/20 00:00:31;;;;;;;4.18;2.15;;;;;;;19.89;49.79;99438.19;4927598;29;20040;-75
2023/05/20 00:02:58;;;;;;;3.80;1.95;;;;;;;19.90;49.94;99439.91;4920039;29;20066;-76
2023/05/20 00:05:24;;;;;;;3.55;1.92;;;;;;;19.88;49.93;99437.34;4929986;29;20035;-76
2023/05/20 00:07:49;;;;;;;5.65;2.30;;;;;;;19.88;49.46;99436.47;4930459;29;20020;-76
2023/05/20 00:10:15;;;;;;;3.10;1.98;;;;;;;19.89;49.96;99432.91;4928869;29;20457;-76
2023/05/20 00:12:40;;;;;;;3.35;1.98;;;;;;;19.89;49.89;99430.25;4927316;29;20028;-76
2023/05/20 00:15:06;;;;;;;4.28;2.30;;;;;;;19.89;49.87;99432.91;4927428;29;20090;-76
2023/05/20 00:17:32;;;;;;;3.78;2.00;;;;;;;19.89;49.82;99411.72;4928882;29;20035;-76
2023/05/20 00:19:58;;;;;;;4.03;2.20;;;;;;;19.88;49.90;99425.88;4930422;29;20464;-75
2023/05/20 00:22:24;;;;;;;3.60;2.33;;;;;;;19.87;49.66;99419.75;4930621;29;20031;-76
2023/05/20 00:24:49;;;;;;;3.53;2.25;;;;;;;19.86;49.90;99418.88;4931620;29;20043;-76
2023/05/20 00:27:15;;;;;;;3.80;2.05;;;;;;;19.88;49.86;99425.88;4926388;29;20086;-76
2023/05/20 00:29:40;;;;;;;3.42;2.25;;;;;;;19.87;50.11;99414.44;4923324;29;20028;-76
2023/05/20 00:32:06;;;;;;;4.22;1.98;;;;;;;19.88;49.81;99415.28;4933344;29;20027;-76
2023/05/20 00:34:31;;;;;;;5.63;2.50;;;;;;;19.85;49.89;99414.53;4929218;29;20490;-76
2023/05/20 00:36:57;;;;;;;4.38;2.33;;;;;;;19.86;49.81;99413.59;4931752;29;20696;-76
2023/05/20 00:39:22;;;;;;;3.75;2.20;;;;;;;19.85;49.82;99411.88;4926461;29;20079;-76
2023/05/20 00:41:47;;;;;;;2.88;2.10;;;;;;;19.88;49.83;99410.00;4932633;29;20035;-75
2023/05/20 00:44:13;;;;;;;3.42;2.10;;;;;;;19.86;49.88;99404.81;4926578;29;20059;-76
2023/05/20 00:46:38;;;;;;;3.78;2.30;;;;;;;19.84;49.88;99399.59;4921822;29;20042;-76
2023/05/20 00:49:04;;;;;;;2.90;1.92;;;;;;;19.86;50.01;99402.16;4931631;29;20063;-76
2023/05/20 00:51:30;;;;;;;4.10;2.10;;;;;;;19.86;50.08;99397.69;4935637;29;20028;-75
2023/05/20 00:53:55;;;;;;;4.18;2.20;;;;;;;19.85;49.56;99400.44;4919562;29;20402;-76
2023/05/20 00:56:21;;;;;;;3.58;2.00;;;;;;;19.84;50.06;99399.59;4936962;28;20055;-76
2023/05/20 00:58:47;;;;;;;4.88;2.38;;;;;;;19.85;49.97;99395.13;4937686;29;20028;-76
2023/05/20 01:01:12;;;;;;;3.65;1.77;;;;;;;19.84;50.11;99399.59;4937053;29;20509;-75
2023/05/20 01:03:39;;;;;;;3.97;2.08;;;;;;;19.83;49.91;99392.59;4937762;29;20047;-76
2023/05/20 01:06:04;;;;;;;4.22;2.08;;;;;;;19.82;49.98;99393.50;4937597;29;20031;-76
2023/05/20 01:08:31;;;;;;;3.33;1.85;;;;;;;19.83;49.90;99387.28;4937539;29;20031;-76
2023/05/20 01:11:05;;;;;;;3.85;1.90;;;;;;;19.82;49.91;99390.84;4918338;29;20494;-76
2023/05/20 01:13:36;;;;;;;3.10;2.00;;;;;;;19.83;49.77;99381.13;4915019;29;20039;-75
2023/05/20 01:16:02;;;;;;;3.90;2.10;;;;;;;19.82;49.49;99390.84;4915189;29;20052;-76
2023/05/20 01:18:31;;;;;;;4.50;2.17;;;;;;;19.82;49.86;99379.44;4898543;29;20017;-76
2023/05/20 01:21:01;;;;;;;4.40;1.95;;;;;;;19.82;49.75;99372.31;4915431;29;20502;-75
2023/05/20 01:23:38;;;;;;;4.13;2.33;;;;;;;19.82;49.80;99379.44;4934212;29;20031;-75
2023/05/20 01:26:05;;;;;;;3.92;2.25;;;;;;;19.83;49.70;99370.53;4933900;29;20556;-76
2023/05/20 01:28:31;;;;;;;3.58;1.88;;;;;;;19.83;49.96;99378.50;4933799;29;20099;-76
2023/05/20 01:31:00;;;;;;;3.97;2.20;;;;;;;19.81;49.94;99373.28;4917659;29;20466;-76
2023/05/20 01:33:28;;;;;;;3.58;2.05;;;;;;;19.80;49.84;99366.28;4919376;29;20036;-77
2023/05/20 01:35:54;;;;;;;3.20;1.98;;;;;;;19.80;49.67;99366.28;4933994;28;20036;-75
2023/05/20 01:38:21;;;;;;;3.00;1.85;;;;;;;19.79;49.55;99364.56;4933346;29;20027;-76
2023/05/20 01:40:48;;;;;;;3.45;2.30;;;;;;;19.80;49.79;99366.28;4933946;29;20478;-76
2023/05/20 01:43:15;;;;;;;3.38;1.80;;;;;;;19.80;49.74;99363.63;4933692;28;20059;-76
2023/05/20 01:45:41;;;;;;;3.67;2.08;;;;;;;19.79;49.68;99358.41;4934007;29;20386;-76
2023/05/20 01:48:11;;;;;;;3.45;2.00;;;;;;;19.79;49.72;99361.06;4933664;29;20027;-75
2023/05/20 01:50:37;;;;;;;4.28;2.10;;;;;;;19.78;49.80;99362.00;4933807;29;20028;-76
2023/05/20 01:53:02;;;;;;;3.92;2.30;;;;;;;19.80;49.88;99360.97;4932565;29;20028;-76
2023/05/20 01:55:28;;;;;;;3.22;1.95;;;;;;;19.79;49.68;99358.41;4927043;29;20110;-76
2023/05/20 01:57:53;;;;;;;2.78;2.00;;;;;;;19.77;49.62;99361.19;4915801;29;20031;-76
2023/05/20 02:00:18;;;;;;;4.05;2.10;;;;;;;19.78;49.86;99356.72;4933483;29;20382;-76
2023/05/20 02:02:44;;;;;;;2.97;1.95;;;;;;;19.76;49.73;99356.78;4933615;29;20094;-76
2023/05/20 02:05:09;;;;;;;3.05;2.00;;;;;;;19.77;49.82;99355.88;4933617;29;20119;-75
2023/05/20 02:07:35;;;;;;;3.63;2.13;;;;;;;19.77;49.48;99355.88;4933508;29;20106;-76
2023/05/20 02:10:00;;;;;;;3.45;2.10;;;;;;;19.79;49.78;99353.13;4933528;29;20521;-76
2023/05/20 02:12:25;;;;;;;3.72;1.92;;;;;;;19.76;49.49;99354.16;4933407;29;20073;-76
2023/05/20 02:14:51;;;;;;;4.22;2.30;;;;;;;19.75;49.74;99349.81;4933218;29;20036;-76
2023/05/20 02:17:17;;;;;;;3.45;1.95;;;;;;;19.75;49.71;99352.44;4933561;29;20031;-75
2023/05/20 02:19:45;;;;;;;3.63;1.98;;;;;;;19.76;49.69;99343.56;4933384;29;20390;-76
2023/05/20 02:22:11;;;;;;;4.38;1.98;;;;;;;19.76;50.01;99338.25;4933311;29;20513;-76
2023/05/20 02:24:37;;;;;;;3.65;2.10;;;;;;;19.74;49.75;99334.88;4933337;29;20023;-76
2023/05/20 02:27:03;;;;;;;2.97;1.95;;;;;;;19.74;49.65;99334.88;4933234;29;20036;-76
2023/05/20 02:29:29;;;;;;;2.55;1.65;;;;;;;19.72;49.89;99331.47;4916434;28;20035;-76
2023/05/20 02:31:54;;;;;;;4.70;1.88;;;;;;;19.74;49.78;99324.28;4933098;29;20031;-75
2023/05/20 02:34:20;;;;;;;4.05;2.15;;;;;;;19.73;49.73;99323.41;4933321;29;20401;-74
2023/05/20 02:36:46;;;;;;;3.88;2.10;;;;;;;19.74;49.87;99324.28;4932941;29;20498;-76
2023/05/20 02:39:11;;;;;;;3.65;2.05;;;;;;;19.72;49.73;99326.16;4933121;29;20023;-76
2023/05/20 02:41:37;;;;;;;3.70;1.90;;;;;;;19.75;49.67;99314.56;4932805;29;20035;-76
2023/05/20 02:44:03;;;;;;;3.35;1.80;;;;;;;19.74;49.65;99308.38;4933155;29;20102;-76
2023/05/20 02:46:28;;;;;;;3.67;1.80;;;;;;;19.74;49.89;99303.09;4916156;29;20038;-76
2023/05/20 02:48:54;;;;;;;2.60;1.90;;;;;;;19.74;49.84;99311.03;4933049;29;20036;-76
2023/05/20 02:51:19;;;;;;;4.10;2.28;;;;;;;19.73;49.82;99302.22;4933060;29;20062;-76
2023/05/20 02:53:46;;;;;;;3.17;1.88;;;;;;;19.73;49.54;99302.22;4933018;28;20028;-76
2023/05/20 02:56:12;;;;;;;3.50;1.92;;;;;;;19.72;49.64;99305.00;4932831;28;20087;-75
2023/05/20 02:58:38;;;;;;;3.78;1.80;;;;;;;19.72;49.78;99300.53;4933756;29;20053;-75
2023/05/20 03:01:04;;;;;;;2.40;1.60;;;;;;;19.71;49.63;99298.00;4935272;29;20126;-76
2023/05/20 03:03:30;;;;;;;4.13;2.08;;;;;;;19.71;49.68;99298.00;4935676;29;20066;-76
2023/05/20 03:05:55;;;;;;;5.00;2.00;;;;;;;19.72;49.76;99299.69;4934767;29;20040;-76
2023/05/20 03:08:22;;;;;;;2.90;1.88;;;;;;;19.72;49.81;99294.41;4935309;28;20040;-76
2023/05/20 03:10:48;;;;;;;2.90;1.75;;;;;;;19.70;49.79;99297.13;4934916;29;20039;-75
2023/05/20 03:13:14;;;;;;;2.75;2.00;;;;;;;19.71;49.72;99287.41;4935255;29;20406;-76
2023/05/20 03:15:44;;;;;;;3.60;1.83;;;;;;;19.69;49.63;99279.53;4935550;29;20077;-76
2023/05/20 03:18:10;;;;;;;4.07;2.25;;;;;;;19.69;49.86;99273.38;4934743;29;20024;-76
2023/05/20 03:20:37;;;;;;;3.83;2.30;;;;;;;19.71;49.87;99282.09;4934933;29;20107;-76
2023/05/20 03:23:03;;;;;;;4.32;2.03;;;;;;;19.69;49.75;99273.38;4934406;29;20036;-75
2023/05/20 03:25:28;;;;;;;2.95;1.83;;;;;;;19.66;49.55;99271.78;4933823;29;20028;-76
2023/05/20 03:27:54;;;;;;;3.63;2.05;;;;;;;19.69;49.83;99273.38;4933373;29;20101;-76
2023/05/20 03:30:20;;;;;;;3.35;2.05;;;;;;;19.69;49.58;99276.91;4933540;29;20032;-76
2023/05/20 03:32:45;;;;;;;3.40;2.05;;;;;;;19.68;49.61;99269.03;4933783;29;20050;-76
2023/05/20 03:35:11;;;;;;;3.08;2.22;;;;;;;19.67;49.65;99265.53;4932820;29;20119;-76
2023/05/20 03:37:36;;;;;;;2.53;1.88;;;;;;;19.67;49.67;99262.03;4933434;29;20028;-75
2023/05/20 03:40:05;;;;;;;3.95;2.15;;;;;;;19.68;49.63;99272.56;4933150;29;20031;-75
2023/05/20 03:42:33;;;;;;;4.38;2.00;;;;;;;19.66;49.87;99263.00;4932729;29;20036;-76
2023/05/20 03:44:59;;;;;;;4.03;1.95;;;;;;;19.64;49.51;99263.06;4914935;29;20035;-76
2023/05/20 03:47:25;;;;;;;3.88;2.28;;;;;;;19.66;49.67;99257.69;4914296;29;20584;-76
2023/05/20 03:49:51;;;;;;;3.03;1.77;;;;;;;19.64;49.91;99251.63;4918197;29;20032;-76
2023/05/20 03:52:16;;;;;;;3.60;2.10;;;;;;;19.65;49.71;99261.25;4932777;29;20089;-75
2023/05/20 03:54:42;;;;;;;3.88;2.28;;;;;;;19.64;49.51;99260.44;4932299;29;20052;-76
2023/05/20 03:57:09;;;;;;;4.28;1.90;;;;;;;19.64;49.72;99254.28;4933002;29;20039;-75
2023/05/20 03:59:35;;;;;;;3.10;1.75;;;;;;;19.63;49.76;99252.56;4932892;29;20027;-75
2023/05/20 04:02:01;;;;;;;3.75;2.05;;;;;;;19.63;49.61;99250.78;4932468;29;20059;-76
2023/05/20 04:04:26;;;;;;;3.90;2.00;;;;;;;19.64;49.76;99244.53;4932404;29;20024;-75
2023/05/20 04:06:53;;;;;;;3.67;2.00;;;;;;;19.65;49.85;99240.94;4915511;29;20525;-75
2023/05/20 04:09:18;;;;;;;4.28;2.38;;;;;;;19.62;49.57;99240.28;4932073;29;20035;-76
2023/05/20 04:11:44;;;;;;;2.90;1.80;;;;;;;19.64;49.63;99243.69;4932312;29;20024;-75
2023/05/20 04:14:10;;;;;;;4.45;2.17;;;;;;;19.63;49.85;99240.19;4932296;29;20043;-75
2023/05/20 04:16:36;;;;;;;3.38;2.13;;;;;;;19.63;49.82;99247.28;4932243;29;20028;-76
2023/05/20 04:19:02;;;;;;;4.15;2.20;;;;;;;19.61;49.70;99246.53;4932451;29;20439;-75
2023/05/20 04:21:27;;;;;;;4.25;1.98;;;;;;;19.64;49.77;99243.69;4932322;29;20418;-76
2023/05/20 04:23:53;;;;;;;3.42;1.98;;;;;;;19.62;49.83;99241.16;4931940;29;20078;-76
2023/05/20 04:26:19;;;;;;;3.17;2.00;;;;;;;19.61;49.58;99238.59;4932101;29;20031;-76
2023/05/20 04:28:47;;;;;;;3.08;2.00;;;;;;;19.62;49.77;99240.28;4932056;29;20035;-76
2023/05/20 04:31:13;;;;;;;3.08;1.95;;;;;;;19.59;49.82;99241.31;4932430;29;20048;-76
2023/05/20 04:33:38;;;;;;;3.50;2.17;;;;;;;19.61;49.90;99250.00;4932129;29;20059;-76
2023/05/20 04:36:06;;;;;;;3.45;2.08;;;;;;;19.59;49.80;99236.88;4931868;29;20039;-76
2023/05/20 04:38:31;;;;;;;3.47;1.95;;;;;;;19.60;49.68;99243.00;4931720;29;20428;-76
2023/05/20 04:40:57;;;;;;;3.25;2.08;;;;;;;19.59;49.43;99251.91;4931718;29;20035;-76
2023/05/20 04:43:24;;;;;;;4.22;1.90;;;;;;;19.59;49.70;99252.78;4931581;29;20067;-77
2023/05/20 04:45:52;;;;;;;3.25;2.00;;;;;;;19.57;49.78;99249.34;4932369;29;20036;-76
2023/05/20 04:48:18;;;;;;;3.65;2.00;;;;;;;19.58;49.66;99245.75;4935042;29;20024;-76
2023/05/20 04:50:44;;;;;;;4.03;1.88;;;;;;;19.57;49.66;99246.69;4934980;29;20508;-76
2023/05/20 04:53:10;;;;;;;3.15;2.00;;;;;;;19.58;49.71;99239.63;4932328;29;20034;-76
2023/05/20 04:55:36;;;;;;;3.38;2.10;;;;;;;19.56;49.52;99245.00;4934527;28;20417;-77
2023/05/20 04:58:02;;;;;;;3.38;1.92;;;;;;;19.56;49.68;99245.00;4934879;29;20039;-76
2023/05/20 05:00:27;;;;;;;4.40;1.95;;;;;;;19.56;49.80;99252.94;4934920;29;20390;-76
2023/05/20 05:02:53;;;;;;;2.63;1.77;;;;;;;19.58;49.60;99260.78;4934833;29;20042;-76
2023/05/20 05:05:18;;;;;;;3.55;2.30;;;;;;;19.56;49.76;99258.22;4934480;29;20042;-76
2023/05/20 05:07:44;;;;;;;4.40;2.13;;;;;;;19.57;49.52;99259.94;4934186;29;20024;-75
2023/05/20 05:10:10;;;;;;;3.38;2.08;;;;;;;19.55;49.64;99256.53;4934548;29;20058;-76
2023/05/20 05:12:35;;;;;;;4.53;2.08;;;;;;;19.57;49.76;99251.16;4934738;29;20035;-76
2023/05/20 05:15:01;;;;;;;2.80;1.88;;;;;;;19.56;49.53;99263.50;4934604;29;20024;-76
2023/05/20 05:17:27;;;;;;;3.97;2.22;;;;;;;19.55;49.75;99260.94;4917330;28;20414;-76
2023/05/20 05:19:53;;;;;;;3.80;2.10;;;;;;;19.55;49.69;99264.47;4917332;29;20020;-76
2023/05/20 05:22:18;;;;;;;3.28;2.05;;;;;;;19.53;49.65;99262.84;4934305;29;20039;-75
2023/05/20 05:24:43;;;;;;;3.50;2.20;;;;;;;19.53;49.54;99258.41;4934304;29;20039;-76
2023/05/20 05:27:09;;;;;;;3.58;2.00;;;;;;;19.53;49.59;99261.06;4934329;29;20393;-76
2023/05/20 05:29:34;;;;;;;3.20;1.90;;;;;;;19.52;49.77;99258.50;4928780;29;20434;-76
2023/05/20 05:32:00;;;;;;;3.30;1.95;;;;;;;19.52;49.69;99259.34;4914996;28;20037;-76
2023/05/20 05:34:25;;;;;;;4.35;2.30;;;;;;;19.53;49.97;99265.50;4927421;29;20169;-76
2023/05/20 05:36:51;;;;;;;4.40;2.22;;;;;;;19.52;49.92;99267.28;4933505;29;20032;-75
2023/05/20 05:39:16;;;;;;;3.72;2.20;;;;;;;19.50;49.67;99263.88;4934030;29;20099;-76
2023/05/20 05:41:42;;;;;;;3.80;1.83;;;;;;;19.51;49.64;99270.88;4933954;29;20178;-76
2023/05/20 05:44:07;;;;;;;4.18;2.22;;;;;;;19.52;49.83;99274.38;4934122;29;20032;-76
2023/05/20 05:46:32;;;;;;;3.47;2.03;;;;;;;19.49;49.85;99267.47;4934195;29;20035;-76
2023/05/20 05:48:58;;;;;;;3.22;2.15;;;;;;;19.52;49.58;99271.72;4933781;29;20035;-75
2023/05/20 05:51:26;;;;;;;4.47;2.50;;;;;;;19.49;49.71;99272.75;4934102;29;20444;-75
2023/05/20 05:53:52;;;;;;;3.53;2.05;;;;;;;19.51;49.97;99268.22;4934000;29;20028;-76
2023/05/20 05:56:17;;;;;;;3.15;1.95;;;;;;;19.49;49.75;99267.47;4933131;28;20062;-76
2023/05/20 05:58:44;;;;;;;3.88;2.10;;;;;;;19.50;49.65;99265.66;4933865;29;20414;-76
2023/05/20 06:01:10;;;;;;;2.83;2.00;;;;;;;19.50;49.73;99257.72;4933884;29;20035;-76
2023/05/20 06:03:35;;;;;;;4.07;2.20;;;;;;;19.49;49.44;99264.81;4933485;29;20024;-76
2023/05/20 06:06:01;;;;;;;4.43;2.85;;;;;;;19.50;49.70;99261.22;4916557;29;20401;-75
2023/05/20 06:08:26;;;;;;;4.40;2.15;;;;;;;19.49;49.68;99272.75;4933802;29;20036;-76
2023/05/20 06:10:52;;;;;;;3.00;1.90;;;;;;;19.48;49.87;99256.97;4918171;29;20040;-76
2023/05/20 06:13:17;;;;;;;3.08;1.98;;;;;;;19.48;49.75;99265.78;4915170;29;20050;-76
2023/05/20 06:15:44;;;;;;;4.28;2.03;;;;;;;19.49;49.60;99267.47;4914483;29;20032;-76
2023/05/20 06:18:11;;;;;;;3.95;2.10;;;;;;;19.47;49.86;99261.44;4914215;29;20082;-76
2023/05/20 06:20:36;;;;;;;4.07;2.28;;;;;;;19.48;49.64;99257.84;4914358;29;20628;-76
2023/05/20 06:23:01;;;;;;;3.72;2.20;;;;;;;19.49;49.95;99262.19;4914480;29;20028;-76
2023/05/20 06:25:27;;;;;;;3.58;2.00;;;;;;;19.48;49.93;99263.13;4914379;29;20028;-76
2023/05/20 06:27:52;;;;;;;4.20;2.25;;;;;;;19.46;49.53;99259.69;4914317;29;20107;-75
2023/05/20 06:30:18;;;;;;;4.30;2.22;;;;;;;19.45;49.52;99258.84;4914522;28;20024;-76
2023/05/20 06:32:43;;;;;;;3.08;1.98;;;;;;;19.46;49.88;99259.69;4913828;29;20463;-76
2023/05/20 06:35:09;;;;;;;4.72;2.33;;;;;;;19.47;49.65;99264.06;4914421;29;20036;-76
2023/05/20 06:37:34;;;;;;;3.90;2.30;;;;;;;19.45;49.82;99265.94;4919292;29;20089;-75
2023/05/20 06:40:00;;;;;;;3.72;2.17;;;;;;;19.45;49.73;99264.16;4933127;29;20032;-77
2023/05/20 06:42:26;;;;;;;4.43;2.33;;;;;;;19.46;49.80;99267.63;4933406;29;20036;-76
2023/05/20 06:44:51;;;;;;;3.00;1.77;;;;;;;19.46;49.65;99262.34;4933198;29;20548;-76
2023/05/20 06:47:17;;;;;;;4.20;2.00;;;;;;;19.44;49.85;99261.59;4932768;29;20036;-76
2023/05/20 06:49:43;;;;;;;4.03;2.03;;;;;;;19.45;49.73;99265.94;4933073;29;20028;-76
2023/05/20 06:52:08;;;;;;;4.22;2.30;;;;;;;19.44;49.77;99256.28;4933013;29;20028;-76
2023/05/20 06:54:38;;;;;;;4.03;1.88;;;;;;;19.43;49.76;99262.53;4932813;28;20051;-77
2023/05/20 06:57:05;;;;;;;3.03;1.80;;;;;;;19.44;49.77;99258.94;4933028;29;20094;-76
2023/05/20 06:59:30;;;;;;;3.90;2.40;;;;;;;19.44;49.91;99258.94;4932905;29;20158;-76
2023/05/20 07:01:55;;;;;;;3.72;2.10;;;;;;;19.44;49.74;99256.28;4932573;29;20440;-76
2023/05/20 07:04:21;;;;;;;4.32;2.15;;;;;;;19.44;49.92;99256.28;4932888;29;20023;-76
2023/05/20 07:06:46;;;;;;;4.82;2.72;;;;;;;19.43;49.58;99266.00;4917603;29;20036;-76
2023/05/20 07:09:11;;;;;;;5.10;2.40;;;;;;;19.43;49.84;99259.88;4914198;29;20475;-75
2023/05/20 07:11:37;;;;;;;3.33;2.15;;;;;;;19.41;49.64;99249.38;4932805;29;20032;-76
2023/05/20 07:14:02;;;;;;;4.35;2.28;;;;;;;19.41;49.90;99253.81;4932562;29;20055;-75
2023/05/20 07:16:28;;;;;;;4.03;2.38;;;;;;;19.42;49.82;99245.78;4932224;29;20049;-76
2023/05/20 07:18:53;;;;;;;3.55;2.28;;;;;;;19.43;49.94;99249.31;4932433;28;20492;-76
2023/05/20 07:21:19;;;;;;;3.45;2.00;;;;;;;19.40;49.92;99252.13;4932498;29;20038;-76
2023/05/20 07:23:45;;;;;;;5.10;2.20;;;;;;;19.39;49.74;99256.56;4932791;29;20028;-76
2023/05/20 07:26:10;;;;;;;4.60;2.05;;;;;;;19.40;49.96;99254.75;4932399;29;20494;-76
2023/05/20 07:28:36;;;;;;;4.88;2.58;;;;;;;19.40;49.94;99257.41;4932609;29;20028;-76
2023/05/20 07:31:02;;;;;;;3.72;2.30;;;;;;;19.39;50.00;99253.06;4932281;29;20047;-76
2023/05/20 07:33:28;;;;;;;4.22;2.25;;;;;;;19.38;50.06;99256.66;4932436;29;20066;-76
2023/05/20 07:35:54;;;;;;;5.25;2.60;;;;;;;19.38;50.08;99254.00;4932370;29;20035;-76
2023/05/20 07:38:20;;;;;;;3.90;2.10;;;;;;;19.38;49.78;99251.34;4932389;29;20440;-76
2023/05/20 07:40:45;;;;;;;3.97;2.15;;;;;;;19.38;50.02;99254.00;4932432;29;20032;-76
2023/05/20 07:43:10;;;;;;;5.25;2.47;;;;;;;19.37;50.09;99244.38;4932255;29;20385;-76
2023/05/20 07:45:36;;;;;;;4.10;2.20;;;;;;;19.37;49.92;99252.31;4932198;29;20023;-76
2023/05/20 07:48:03;;;;;;;3.13;1.80;;;;;;;19.34;50.17;99248.03;4932172;29;20019;-76
2023/05/20 07:50:28;;;;;;;5.07;2.25;;;;;;;19.35;50.00;99249.75;4932237;28;20405;-75
2023/05/20 07:52:54;;;;;;;4.65;2.20;;;;;;;19.35;49.94;99243.59;4932217;29;20026;-76
2023/05/20 07:55:19;;;;;;;5.20;2.10;;;;;;;19.39;50.15;99255.69;4931785;28;20055;-76
2023/05/20 07:57:45;;;;;;;5.20;2.63;;;;;;;19.37;50.09;99252.31;4932370;29;20051;-76
2023/05/20 08:00:11;;;;;;;4.63;2.28;;;;;;;19.37;50.09;99258.44;4931928;29;20561;-77
2023/05/20 08:02:37;;;;;;;5.00;2.50;;;;;;;19.37;50.00;99249.66;4932345;29;20028;-76
2023/05/20 08:05:03;;;;;;;4.22;2.22;;;;;;;19.39;50.20;99251.28;4931785;29;20063;-76
2023/05/20 08:07:29;;;;;;;5.10;2.55;;;;;;;19.37;50.22;99252.31;4931963;29;20478;-76
2023/05/20 08:09:54;;;;;;;5.15;2.05;;;;;;;19.37;49.99;99245.19;4932228;29;20082;-76
2023/05/20 08:12:20;;;;;;;3.85;2.35;;;;;;;19.38;50.13;99248.72;4931831;29;20122;-76
2023/05/20 08:14:45;;;;;;;3.60;1.95;;;;;;;19.39;49.97;99245.13;4931834;29;20187;-76
2023/05/20 08:17:11;;;;;;;3.42;2.30;;;;;;;19.40;49.91;99246.81;4931905;29;20078;-76
2023/05/20 08:19:36;;;;;;;5.45;2.53;;;;;;;19.41;50.04;99251.16;4932320;29;20040;-76
2023/05/20 08:22:01;;;;;;;5.80;2.95;;;;;;;19.41;50.11;99246.75;4935346;29;20032;-76
2023/05/20 08:24:27;;;;;;;3.80;2.13;;;;;;;19.41;50.12;99235.28;4935328;29;20183;-76
2023/05/20 08:26:52;;;;;;;5.13;2.42;;;;;;;19.41;49.96;99235.28;4935016;29;20683;-76
2023/05/20 08:29:18;;;;;;;4.00;2.53;;;;;;;19.42;50.20;99235.22;4934698;29;20032;-76
2023/05/20 08:31:43;;;;;;;4.90;2.42;;;;;;;19.42;49.98;99229.91;4935060;29;20034;-76
2023/05/20 08:34:09;;;;;;;3.75;2.42;;;;;;;19.44;50.11;99230.69;4934774;28;20032;-77
2023/05/20 08:36:34;;;;;;;4.18;2.47;;;;;;;19.43;50.10;99230.78;4917801;28;20070;-76
2023/05/20 08:39:00;;;;;;;3.67;2.55;;;;;;;19.45;50.07;99228.88;4934990;29;20115;-76
2023/05/20 08:41:26;;;;;;;3.78;2.22;;;;;;;19.44;49.88;99227.19;4934960;29;20406;-76
2023/05/20 08:43:53;;;;;;;3.97;2.25;;;;;;;19.44;50.09;99217.47;4934464;29;20063;-75
2023/05/20 08:46:20;;;;;;;4.07;2.08;;;;;;;19.45;50.11;99219.16;4935105;29;20452;-76
2023/05/20 08:48:46;;;;;;;3.45;2.15;;;;;;;19.46;50.03;99214.72;4934876;29;20470;-76
2023/05/20 08:51:14;;;;;;;3.58;2.13;;;;;;;19.48;50.05;99209.34;4934760;29;20493;-76
2023/05/20 08:53:40;;;;;;;3.60;2.22;;;;;;;19.46;50.22;99214.72;4934549;29;20023;-76
2023/05/20 08:56:08;;;;;;;3.75;2.30;;;;;;;19.47;50.01;99216.44;4930879;29;20524;-78
2023/05/20 08:58:33;;;;;;;4.28;2.40;;;;;;;19.45;50.17;99208.59;4933300;29;20032;-76
2023/05/20 09:00:59;;;;;;;3.33;2.00;;;;;;;19.45;49.90;99221.81;4934688;29;20038;-76
2023/05/20 09:03:25;;;;;;;4.15;2.28;;;;;;;19.47;50.29;99221.72;4934609;29;20033;-76
2023/05/20 09:05:52;;;;;;;4.03;2.45;;;;;;;19.46;50.29;99220.00;4934671;29;20032;-78
2023/05/20 09:08:23;;;;;;;5.28;2.30;;;;;;;19.47;50.00;99221.72;4925641;28;20035;-76
2023/05/20 09:10:51;;;;;;;4.70;2.53;;;;;;;19.47;50.42;99216.44;4925236;29;20670;-76
2023/05/20 09:13:16;;;;;;;4.53;2.50;;;;;;;19.49;50.08;99208.38;4923900;29;20025;-76
2023/05/20 09:15:41;;;;;;;4.78;2.30;;;;;;;19.51;49.94;99211.81;4920922;29;20050;-76
2023/05/20 09:18:07;;;;;;;3.50;2.25;;;;;;;19.50;50.19;99216.25;4929596;29;20047;-75
2023/05/20 09:20:36;;;;;;;5.00;2.78;;;;;;;19.51;50.12;99211.81;4926976;29;20028;-76
2023/05/20 09:23:06;;;;;;;3.88;2.25;;;;;;;19.53;50.26;99210.78;4921000;29;20494;-75
2023/05/20 09:25:32;;;;;;;5.47;2.28;;;;;;;19.51;50.39;99204.72;4923521;29;20040;-76
2023/05/20 09:27:57;;;;;;;4.65;2.90;;;;;;;19.52;50.25;99203.75;4922796;29;20043;-77
2023/05/20 09:30:23;;;;;;;4.07;2.35;;;;;;;19.52;50.37;99203.75;4931602;29;20028;-76
2023/05/20 09:32:57;;;;;;;4.43;2.42;;;;;;;19.54;50.30;99208.97;4927611;29;20040;-76
2023/05/20 09:35:23;;;;;;;3.17;2.17;;;;;;;19.52;50.13;99203.75;4926564;29;20028;-77
2023/05/20 09:37:53;;;;;;;4.53;2.53;;;;;;;19.54;50.04;99209.84;4920019;29;20036;-75
2023/05/20 09:40:25;;;;;;;4.00;2.30;;;;;;;19.54;50.45;99196.59;4923573;29;20035;-76
2023/05/20 09:42:53;;;;;;;4.60;2.40;;;;;;;19.55;50.17;99193.00;4925253;29;20051;-76
2023/05/20 09:45:21;;;;;;;4.00;2.58;;;;;;;19.55;50.17;99193.00;4922746;29;20043;-76
2023/05/20 09:47:46;;;;;;;5.07;2.67;;;;;;;19.57;50.23;99191.09;4918112;29;20048;-76
2023/05/20 09:50:13;;;;;;;4.45;2.60;;;;;;;19.56;50.37;99186.78;4919729;29;20104;-75
2023/05/20 09:52:40;;;;;;;4.20;2.47;;;;;;;19.57;50.20;99192.94;4937027;29;20053;-76
2023/05/20 09:55:06;;;;;;;5.15;2.22;;;;;;;19.56;50.19;99189.41;4925164;28;20417;-76
2023/05/20 09:57:35;;;;;;;5.43;2.40;;;;;;;19.56;50.41;99189.41;4930113;29;20085;-75
2023/05/20 10:00:03;;;;;;;3.90;2.65;;;;;;;19.57;50.37;99185.81;4912957;28;20036;-76
2023/05/20 10:02:29;;;;;;;5.60;2.67;;;;;;;19.59;50.31;99183.94;4925311;29;20074;-76
2023/05/20 10:04:57;;;;;;;3.35;2.35;;;;;;;19.59;50.42;99183.94;4918046;29;20097;-76
2023/05/20 10:07:49;;;;;;;4.90;2.67;;;;;;;19.61;50.12;99185.66;4919661;29;20042;-77
2023/05/20 10:10:17;;;;;;;4.72;2.72;;;;;;;19.62;50.13;99179.41;4925073;29;20035;-76
2023/05/20 10:13:03;;;;;;;4.38;2.63;;;;;;;19.62;50.40;99176.75;4932111;29;20035;-76
2023/05/20 10:16:11;;;;;;;4.28;2.67;;;;;;;19.61;50.41;99173.25;4923642;29;20450;-76
2023/05/20 10:19:09;;;;;;;3.90;2.40;;;;;;;19.63;50.12;99171.38;4900352;28;20084;-76
2023/05/20 10:21:35;;;;;;;4.93;2.83;;;;;;;19.64;50.28;99165.13;4894312;28;20152;-76
2023/05/20 10:24:10;;;;;;;4.03;2.25;;;;;;;19.63;50.47;99167.88;4887756;28;20124;-76
2023/05/20 10:26:40;;;;;;;3.97;2.47;;;;;;;19.64;50.19;99161.63;4891578;28;20068;-76
2023/05/20 10:29:16;;;;;;;4.85;2.60;;;;;;;19.65;50.26;99165.97;4899990;28;21906;-77
2023/05/20 10:31:48;;;;;;;3.85;2.35;;;;;;;19.66;50.30;99173.84;4892930;28;20399;-76
2023/05/20 10:34:23;;;;;;;3.78;2.40;;;;;;;19.67;50.42;99158.81;4903599;28;20041;-76
2023/05/20 10:36:54;;;;;;;3.83;2.40;;;;;;;19.68;50.35;99171.09;4901897;28;20123;-78
2023/05/20 10:39:26;;;;;;;5.30;2.88;;;;;;;19.69;50.27;99178.09;4895259;28;20036;-76
2023/05/20 10:41:51;;;;;;;3.40;2.22;;;;;;;19.69;50.34;99183.38;4898219;28;20132;-76
2023/05/20 10:44:17;;;;;;;5.10;2.58;;;;;;;19.69;50.21;99173.66;4896272;28;20167;-75
2023/05/20 10:46:42;;;;;;;5.03;2.60;;;;;;;19.72;50.25;99172.63;4890807;28;20515;-77
2023/05/20 10:49:21;;;;;;;4.72;2.50;;;;;;;19.72;50.33;99175.28;4899770;28;20041;-76
2023/05/20 10:51:46;;;;;;;4.65;2.70;;;;;;;19.74;50.31;99173.38;4892414;28;20068;-76
2023/05/20 10:54:13;;;;;;;4.40;2.60;;;;;;;19.73;50.34;99169.03;4890013;28;20582;-76
2023/05/20 10:56:40;;;;;;;3.78;2.20;;;;;;;19.74;50.47;99165.44;4921821;28;20075;-75
2023/05/20 10:59:05;;;;;;;3.55;2.35;;;;;;;19.75;50.21;99161.00;4927186;29;20027;-75
2023/05/20 11:01:31;;;;;;;4.55;2.35;;;;;;;19.75;50.38;99161.84;4921358;29;20401;-76
2023/05/20 11:03:56;;;;;;;4.85;2.90;;;;;;;19.76;50.27;99157.41;4924102;29;20045;-76
2023/05/20 11:06:30;;;;;;;4.97;2.30;;;;;;;19.76;50.21;99158.25;4922819;29;20036;-76
2023/05/20 11:09:06;;;;;;;3.88;2.45;;;;;;;19.77;50.57;99161.75;4917985;29;20090;-75
2023/05/20 11:11:31;;;;;;;3.60;2.25;;;;;;;19.77;50.10;99149.38;4919891;29;20067;-77
2023/05/20 11:13:57;;;;;;;5.15;2.95;;;;;;;19.77;50.36;99148.50;4930699;29;20547;-76
2023/05/20 11:16:22;;;;;;;4.25;2.90;;;;;;;19.79;50.36;99146.63;4924034;29;20043;-76
2023/05/20 11:18:49;;;;;;;3.50;2.30;;;;;;;19.78;50.27;99140.47;4918434;29;20429;-76
2023/05/20 11:21:15;;;;;;;4.20;2.53;;;;;;;19.79;50.26;99142.19;4924032;29;20559;-76
2023/05/20 11:23:41;;;;;;;4.35;2.47;;;;;;;19.81;50.28;99144.75;4925122;29;20028;-76
2023/05/20 11:26:06;;;;;;;5.43;2.60;;;;;;;19.80;50.06;99143.88;4918759;29;20089;-76
2023/05/20 11:28:34;;;;;;;4.05;2.40;;;;;;;19.81;50.51;99139.44;4927447;29;20020;-77
2023/05/20 11:31:00;;;;;;;4.18;2.25;;;;;;;19.81;50.26;99132.34;4924365;29;20035;-75